sensor_id;sensor_type;location;lat;lon;timestamp;P1;durP1;ratioP1;P2;durP2;ratioP2
56299;SDS011;42209;6.376;-10.782;2023-02-01T00:01:06;26.42;;;16.63;;
56299;SDS011;42209;6.376;-10.782;2023-02-01T00:03:35;25.70;;;15.85;;
56299;SDS011;42209;6.376;-10.782;2023-02-01T00:06:04;27.33;;;16.92;;
56299;SDS011;42209;6.376;-10.782;2023-02-01T00:08:32;25.38;;;17.20;;
56299;SDS011;42209;6.376;-10.782;2023-02-01T00:11:01;30.17;;;18.05;;
56299;SDS011;42209;6.376;-10.782;2023-02-01T00:13:36;30.08;;;17.67;;
56299;SDS011;42209;6.376;-10.782;2023-02-01T00:16:10;28.25;;;16.20;;
56299;SDS011;42209;6.376;-10.782;2023-02-01T00:18:45;30.15;;;17.38;;
56299;SDS011;42209;6.376;-10.782;2023-02-01T00:21:15;29.05;;;17.63;;
56299;SDS011;42209;6.376;-10.782;2023-02-01T00:23:45;29.40;;;17.13;;
56299;SDS011;42209;6.376;-10.782;2023-02-01T00:26:16;29.17;;;17.17;;
56299;SDS011;42209;6.376;-10.782;2023-02-01T00:28:53;26.50;;;17.00;;
56299;SDS011;42209;6.376;-10.782;2023-02-01T00:31:22;31.10;;;17.33;;
56299;SDS011;42209;6.376;-10.782;2023-02-01T00:33:54;26.15;;;16.48;;
56299;SDS011;42209;6.376;-10.782;2023-02-01T00:36:22;29.77;;;16.02;;
56299;SDS011;42209;6.376;-10.782;2023-02-01T00:38:50;25.67;;;17.23;;
56299;SDS011;42209;6.376;-10.782;2023-02-01T00:41:19;27.13;;;16.45;;
56299;SDS011;42209;6.376;-10.782;2023-02-01T00:43:49;29.75;;;16.67;;
56299;SDS011;42209;6.376;-10.782;2023-02-01T00:46:21;26.20;;;15.75;;
56299;SDS011;42209;6.376;-10.782;2023-02-01T00:48:49;24.35;;;14.82;;
56299;SDS011;42209;6.376;-10.782;2023-02-01T00:53:48;24.25;;;15.48;;
56299;SDS011;42209;6.376;-10.782;2023-02-01T00:56:16;27.40;;;15.75;;
56299;SDS011;42209;6.376;-10.782;2023-02-01T00:58:45;28.27;;;15.15;;
56299;SDS011;42209;6.376;-10.782;2023-02-01T01:01:17;24.85;;;15.07;;
56299;SDS011;42209;6.376;-10.782;2023-02-01T01:03:51;26.17;;;14.90;;
56299;SDS011;42209;6.376;-10.782;2023-02-01T01:06:25;22.80;;;14.32;;
56299;SDS011;42209;6.376;-10.782;2023-02-01T01:08:56;25.45;;;15.68;;
56299;SDS011;42209;6.376;-10.782;2023-02-01T01:11:27;25.38;;;15.65;;
56299;SDS011;42209;6.376;-10.782;2023-02-01T01:13:57;29.50;;;16.85;;
56299;SDS011;42209;6.376;-10.782;2023-02-01T01:16:28;23.65;;;15.13;;
56299;SDS011;42209;6.376;-10.782;2023-02-01T01:18:58;22.17;;;14.18;;
56299;SDS011;42209;6.376;-10.782;2023-02-01T01:21:27;23.55;;;14.38;;
56299;SDS011;42209;6.376;-10.782;2023-02-01T01:23:55;21.27;;;14.15;;
56299;SDS011;42209;6.376;-10.782;2023-02-01T01:26:28;22.50;;;14.73;;
56299;SDS011;42209;6.376;-10.782;2023-02-01T01:28:58;25.08;;;15.35;;
56299;SDS011;42209;6.376;-10.782;2023-02-01T01:31:27;23.02;;;14.88;;
56299;SDS011;42209;6.376;-10.782;2023-02-01T01:33:57;22.08;;;14.00;;
56299;SDS011;42209;6.376;-10.782;2023-02-01T01:36:28;24.48;;;15.57;;
56299;SDS011;42209;6.376;-10.782;2023-02-01T01:38:56;24.45;;;15.25;;
56299;SDS011;42209;6.376;-10.782;2023-02-01T01:41:26;22.98;;;14.88;;
56299;SDS011;42209;6.376;-10.782;2023-02-01T01:49:11;22.50;;;14.73;;
56299;SDS011;42209;6.376;-10.782;2023-02-01T01:51:51;22.60;;;14.90;;
56299;SDS011;42209;6.376;-10.782;2023-02-01T01:54:26;27.08;;;15.20;;
56299;SDS011;42209;6.376;-10.782;2023-02-01T01:57:01;21.38;;;14.85;;
56299;SDS011;42209;6.376;-10.782;2023-02-01T01:59:40;25.42;;;16.25;;
56299;SDS011;42209;6.376;-10.782;2023-02-01T02:02:13;21.77;;;15.23;;
56299;SDS011;42209;6.376;-10.782;2023-02-01T02:04:41;20.52;;;14.68;;
56299;SDS011;42209;6.376;-10.782;2023-02-01T02:07:11;24.25;;;16.35;;
56299;SDS011;42209;6.376;-10.782;2023-02-01T02:09:46;24.52;;;15.98;;
56299;SDS011;42209;6.376;-10.782;2023-02-01T02:12:26;25.70;;;16.15;;
56299;SDS011;42209;6.376;-10.782;2023-02-01T02:14:55;23.92;;;15.68;;
56299;SDS011;42209;6.376;-10.782;2023-02-01T02:17:36;24.17;;;16.13;;
56299;SDS011;42209;6.376;-10.782;2023-02-01T02:42:34;31.58;;;22.67;;
56299;SDS011;42209;6.376;-10.782;2023-02-01T02:45:08;34.28;;;23.50;;
56299;SDS011;42209;6.376;-10.782;2023-02-01T02:50:32;36.95;;;24.20;;
56299;SDS011;42209;6.376;-10.782;2023-02-01T02:53:04;33.80;;;24.42;;
56299;SDS011;42209;6.376;-10.782;2023-02-01T02:55:42;33.03;;;23.50;;
56299;SDS011;42209;6.376;-10.782;2023-02-01T02:58:11;38.95;;;25.75;;
56299;SDS011;42209;6.376;-10.782;2023-02-01T03:00:42;38.30;;;26.05;;
56299;SDS011;42209;6.376;-10.782;2023-02-01T03:03:13;38.78;;;26.98;;
56299;SDS011;42209;6.376;-10.782;2023-02-01T03:05:45;38.50;;;27.58;;
56299;SDS011;42209;6.376;-10.782;2023-02-01T03:08:16;40.22;;;28.20;;
56299;SDS011;42209;6.376;-10.782;2023-02-01T03:11:03;38.72;;;27.33;;
56299;SDS011;42209;6.376;-10.782;2023-02-01T03:16:31;40.53;;;29.05;;
56299;SDS011;42209;6.376;-10.782;2023-02-01T03:22:04;37.85;;;28.60;;
56299;SDS011;42209;6.376;-10.782;2023-02-01T03:27:19;40.75;;;29.88;;
56299;SDS011;42209;6.376;-10.782;2023-02-01T03:32:38;46.00;;;29.98;;
56299;SDS011;42209;6.376;-10.782;2023-02-01T03:35:09;39.60;;;28.60;;
56299;SDS011;42209;6.376;-10.782;2023-02-01T03:37:38;40.35;;;28.17;;
56299;SDS011;42209;6.376;-10.782;2023-02-01T03:40:07;37.45;;;27.63;;
56299;SDS011;42209;6.376;-10.782;2023-02-01T03:42:38;39.53;;;25.77;;
56299;SDS011;42209;6.376;-10.782;2023-02-01T03:45:20;38.83;;;28.67;;
56299;SDS011;42209;6.376;-10.782;2023-02-01T03:47:58;39.25;;;27.80;;
56299;SDS011;42209;6.376;-10.782;2023-02-01T03:50:30;38.20;;;25.77;;
56299;SDS011;42209;6.376;-10.782;2023-02-01T03:53:07;40.25;;;28.52;;
56299;SDS011;42209;6.376;-10.782;2023-02-01T03:55:43;37.28;;;28.63;;
56299;SDS011;42209;6.376;-10.782;2023-02-01T03:58:13;37.88;;;28.35;;
56299;SDS011;42209;6.376;-10.782;2023-02-01T04:00:46;35.58;;;24.55;;
56299;SDS011;42209;6.376;-10.782;2023-02-01T04:03:22;36.80;;;27.55;;
56299;SDS011;42209;6.376;-10.782;2023-02-01T04:05:54;37.33;;;27.65;;
56299;SDS011;42209;6.376;-10.782;2023-02-01T04:08:26;35.38;;;25.80;;
56299;SDS011;42209;6.376;-10.782;2023-02-01T04:10:54;39.58;;;27.67;;
56299;SDS011;42209;6.376;-10.782;2023-02-01T04:13:22;35.95;;;28.33;;
56299;SDS011;42209;6.376;-10.782;2023-02-01T04:15:51;39.63;;;28.90;;
56299;SDS011;42209;6.376;-10.782;2023-02-01T04:18:19;38.55;;;28.38;;
56299;SDS011;42209;6.376;-10.782;2023-02-01T04:20:47;37.40;;;28.85;;
56299;SDS011;42209;6.376;-10.782;2023-02-01T04:23:15;36.75;;;27.52;;
56299;SDS011;42209;6.376;-10.782;2023-02-01T04:25:43;38.25;;;28.88;;
56299;SDS011;42209;6.376;-10.782;2023-02-01T04:28:12;34.83;;;27.35;;
56299;SDS011;42209;6.376;-10.782;2023-02-01T04:30:40;33.20;;;26.10;;
56299;SDS011;42209;6.376;-10.782;2023-02-01T04:33:09;36.13;;;27.42;;
56299;SDS011;42209;6.376;-10.782;2023-02-01T04:35:37;36.72;;;28.48;;
56299;SDS011;42209;6.376;-10.782;2023-02-01T04:38:05;38.75;;;27.15;;
56299;SDS011;42209;6.376;-10.782;2023-02-01T04:40:33;37.45;;;27.25;;
56299;SDS011;42209;6.376;-10.782;2023-02-01T04:43:01;36.75;;;26.77;;
56299;SDS011;42209;6.376;-10.782;2023-02-01T04:45:30;35.13;;;26.48;;
56299;SDS011;42209;6.376;-10.782;2023-02-01T04:47:58;34.63;;;27.25;;
56299;SDS011;42209;6.376;-10.782;2023-02-01T04:50:26;36.55;;;25.83;;
56299;SDS011;42209;6.376;-10.782;2023-02-01T04:52:55;37.03;;;26.83;;
56299;SDS011;42209;6.376;-10.782;2023-02-01T04:55:23;36.92;;;27.08;;
56299;SDS011;42209;6.376;-10.782;2023-02-01T04:57:51;37.67;;;26.40;;
56299;SDS011;42209;6.376;-10.782;2023-02-01T05:00:20;34.35;;;26.13;;
56299;SDS011;42209;6.376;-10.782;2023-02-01T05:02:48;37.22;;;28.17;;
56299;SDS011;42209;6.376;-10.782;2023-02-01T05:05:17;35.03;;;26.35;;
56299;SDS011;42209;6.376;-10.782;2023-02-01T05:07:45;33.58;;;25.85;;
56299;SDS011;42209;6.376;-10.782;2023-02-01T05:10:13;31.25;;;24.88;;
56299;SDS011;42209;6.376;-10.782;2023-02-01T05:12:43;35.28;;;26.33;;
56299;SDS011;42209;6.376;-10.782;2023-02-01T05:15:12;38.58;;;28.50;;
56299;SDS011;42209;6.376;-10.782;2023-02-01T05:17:40;33.92;;;26.08;;
56299;SDS011;42209;6.376;-10.782;2023-02-01T05:20:08;35.67;;;25.23;;
56299;SDS011;42209;6.376;-10.782;2023-02-01T05:22:37;34.85;;;26.52;;
56299;SDS011;42209;6.376;-10.782;2023-02-01T05:25:05;37.67;;;28.85;;
56299;SDS011;42209;6.376;-10.782;2023-02-01T05:27:34;33.88;;;27.15;;
56299;SDS011;42209;6.376;-10.782;2023-02-01T05:30:06;34.25;;;25.73;;
56299;SDS011;42209;6.376;-10.782;2023-02-01T05:32:36;30.42;;;24.63;;
56299;SDS011;42209;6.376;-10.782;2023-02-01T05:35:04;33.88;;;27.15;;
56299;SDS011;42209;6.376;-10.782;2023-02-01T05:40:00;35.20;;;27.03;;
56299;SDS011;42209;6.376;-10.782;2023-02-01T05:42:29;34.92;;;25.67;;
56299;SDS011;42209;6.376;-10.782;2023-02-01T05:44:57;33.45;;;26.33;;
56299;SDS011;42209;6.376;-10.782;2023-02-01T05:47:25;33.78;;;26.20;;
56299;SDS011;42209;6.376;-10.782;2023-02-01T05:49:53;41.58;;;28.20;;
56299;SDS011;42209;6.376;-10.782;2023-02-01T05:52:22;37.55;;;26.33;;
56299;SDS011;42209;6.376;-10.782;2023-02-01T05:54:50;37.47;;;26.52;;
56299;SDS011;42209;6.376;-10.782;2023-02-01T05:57:18;30.83;;;24.85;;
56299;SDS011;42209;6.376;-10.782;2023-02-01T05:59:46;33.75;;;26.63;;
56299;SDS011;42209;6.376;-10.782;2023-02-01T06:02:15;29.88;;;25.02;;
56299;SDS011;42209;6.376;-10.782;2023-02-01T06:04:43;32.17;;;24.65;;
56299;SDS011;42209;6.376;-10.782;2023-02-01T06:07:12;27.42;;;21.95;;
56299;SDS011;42209;6.376;-10.782;2023-02-01T06:09:43;30.80;;;22.88;;
56299;SDS011;42209;6.376;-10.782;2023-02-01T06:12:11;33.15;;;24.48;;
56299;SDS011;42209;6.376;-10.782;2023-02-01T06:14:40;31.85;;;23.63;;
56299;SDS011;42209;6.376;-10.782;2023-02-01T06:17:08;31.92;;;25.35;;
56299;SDS011;42209;6.376;-10.782;2023-02-01T06:19:36;27.17;;;24.20;;
56299;SDS011;42209;6.376;-10.782;2023-02-01T06:22:05;31.65;;;23.77;;
56299;SDS011;42209;6.376;-10.782;2023-02-01T06:24:33;30.02;;;24.02;;
56299;SDS011;42209;6.376;-10.782;2023-02-01T06:27:02;28.98;;;24.38;;
56299;SDS011;42209;6.376;-10.782;2023-02-01T06:29:30;31.05;;;24.48;;
56299;SDS011;42209;6.376;-10.782;2023-02-01T06:31:58;29.77;;;23.48;;
56299;SDS011;42209;6.376;-10.782;2023-02-01T06:34:26;31.92;;;24.73;;
56299;SDS011;42209;6.376;-10.782;2023-02-01T06:36:55;32.15;;;23.85;;
56299;SDS011;42209;6.376;-10.782;2023-02-01T06:39:23;31.48;;;22.80;;
56299;SDS011;42209;6.376;-10.782;2023-02-01T06:41:52;28.42;;;24.38;;
56299;SDS011;42209;6.376;-10.782;2023-02-01T06:44:20;30.20;;;23.13;;
56299;SDS011;42209;6.376;-10.782;2023-02-01T06:46:48;32.65;;;24.80;;
56299;SDS011;42209;6.376;-10.782;2023-02-01T06:49:16;31.08;;;24.10;;
56299;SDS011;42209;6.376;-10.782;2023-02-01T06:51:45;32.30;;;23.50;;
56299;SDS011;42209;6.376;-10.782;2023-02-01T06:54:13;32.03;;;24.33;;
56299;SDS011;42209;6.376;-10.782;2023-02-01T06:56:41;28.92;;;22.13;;
56299;SDS011;42209;6.376;-10.782;2023-02-01T06:59:09;25.13;;;22.42;;
56299;SDS011;42209;6.376;-10.782;2023-02-01T07:04:06;30.40;;;20.98;;
56299;SDS011;42209;6.376;-10.782;2023-02-01T07:06:38;29.70;;;23.02;;
56299;SDS011;42209;6.376;-10.782;2023-02-01T07:09:08;29.40;;;22.75;;
56299;SDS011;42209;6.376;-10.782;2023-02-01T07:11:36;30.98;;;24.65;;
56299;SDS011;42209;6.376;-10.782;2023-02-01T07:14:04;31.23;;;24.80;;
56299;SDS011;42209;6.376;-10.782;2023-02-01T07:16:33;33.20;;;24.52;;
56299;SDS011;42209;6.376;-10.782;2023-02-01T07:19:01;32.33;;;25.33;;
56299;SDS011;42209;6.376;-10.782;2023-02-01T07:21:31;34.45;;;25.20;;
56299;SDS011;42209;6.376;-10.782;2023-02-01T07:23:59;35.10;;;26.00;;
56299;SDS011;42209;6.376;-10.782;2023-02-01T07:26:27;34.28;;;24.88;;
56299;SDS011;42209;6.376;-10.782;2023-02-01T07:28:56;34.70;;;25.02;;
56299;SDS011;42209;6.376;-10.782;2023-02-01T07:31:24;38.65;;;25.77;;
56299;SDS011;42209;6.376;-10.782;2023-02-01T07:33:52;33.08;;;25.33;;
56299;SDS011;42209;6.376;-10.782;2023-02-01T07:36:20;33.58;;;23.40;;
56299;SDS011;42209;6.376;-10.782;2023-02-01T07:38:49;35.13;;;23.33;;
56299;SDS011;42209;6.376;-10.782;2023-02-01T07:41:17;26.85;;;22.50;;
56299;SDS011;42209;6.376;-10.782;2023-02-01T07:43:45;30.35;;;22.45;;
56299;SDS011;42209;6.376;-10.782;2023-02-01T07:46:14;31.08;;;21.08;;
56299;SDS011;42209;6.376;-10.782;2023-02-01T07:48:42;31.23;;;22.02;;
56299;SDS011;42209;6.376;-10.782;2023-02-01T07:51:12;31.55;;;20.85;;
56299;SDS011;42209;6.376;-10.782;2023-02-01T07:53:42;27.33;;;20.83;;
56299;SDS011;42209;6.376;-10.782;2023-02-01T07:56:12;29.10;;;20.63;;
56299;SDS011;42209;6.376;-10.782;2023-02-01T07:58:46;28.70;;;20.48;;
56299;SDS011;42209;6.376;-10.782;2023-02-01T08:01:16;28.52;;;20.60;;
56299;SDS011;42209;6.376;-10.782;2023-02-01T08:03:53;29.65;;;19.80;;
56299;SDS011;42209;6.376;-10.782;2023-02-01T08:06:23;30.00;;;18.52;;
56299;SDS011;42209;6.376;-10.782;2023-02-01T08:08:52;25.33;;;18.08;;
56299;SDS011;42209;6.376;-10.782;2023-02-01T08:11:22;24.05;;;18.02;;
56299;SDS011;42209;6.376;-10.782;2023-02-01T08:13:51;26.67;;;18.20;;
56299;SDS011;42209;6.376;-10.782;2023-02-01T08:16:20;24.88;;;18.58;;
56299;SDS011;42209;6.376;-10.782;2023-02-01T08:18:50;27.63;;;18.33;;
56299;SDS011;42209;6.376;-10.782;2023-02-01T08:21:25;19.33;;;16.38;;
56299;SDS011;42209;6.376;-10.782;2023-02-01T08:23:55;23.15;;;17.15;;
56299;SDS011;42209;6.376;-10.782;2023-02-01T08:26:24;19.63;;;17.42;;
56299;SDS011;42209;6.376;-10.782;2023-02-01T08:28:54;24.73;;;18.17;;
56299;SDS011;42209;6.376;-10.782;2023-02-01T08:31:24;21.38;;;16.38;;
56299;SDS011;42209;6.376;-10.782;2023-02-01T08:33:54;21.83;;;16.17;;
56299;SDS011;42209;6.376;-10.782;2023-02-01T08:36:25;23.35;;;16.95;;
56299;SDS011;42209;6.376;-10.782;2023-02-01T08:38:58;22.15;;;17.30;;
56299;SDS011;42209;6.376;-10.782;2023-02-01T08:41:27;21.33;;;16.48;;
56299;SDS011;42209;6.376;-10.782;2023-02-01T08:43:57;21.08;;;16.35;;
56299;SDS011;42209;6.376;-10.782;2023-02-01T08:48:54;21.80;;;17.65;;
56299;SDS011;42209;6.376;-10.782;2023-02-01T08:51:22;22.73;;;16.63;;
56299;SDS011;42209;6.376;-10.782;2023-02-01T08:53:51;21.88;;;16.70;;
56299;SDS011;42209;6.376;-10.782;2023-02-01T08:56:22;21.50;;;16.15;;
56299;SDS011;42209;6.376;-10.782;2023-02-01T08:58:51;19.63;;;15.13;;
56299;SDS011;42209;6.376;-10.782;2023-02-01T09:01:19;23.60;;;15.80;;
56299;SDS011;42209;6.376;-10.782;2023-02-01T09:03:47;18.25;;;15.23;;
56299;SDS011;42209;6.376;-10.782;2023-02-01T09:06:16;20.92;;;14.45;;
56299;SDS011;42209;6.376;-10.782;2023-02-01T09:08:44;17.05;;;14.57;;
56299;SDS011;42209;6.376;-10.782;2023-02-01T09:11:14;16.98;;;14.48;;
56299;SDS011;42209;6.376;-10.782;2023-02-01T09:13:44;19.10;;;14.32;;
56299;SDS011;42209;6.376;-10.782;2023-02-01T09:18:47;20.48;;;15.70;;
56299;SDS011;42209;6.376;-10.782;2023-02-01T09:21:33;20.90;;;13.13;;
56299;SDS011;42209;6.376;-10.782;2023-02-01T09:26:30;23.05;;;14.90;;
56299;SDS011;42209;6.376;-10.782;2023-02-01T09:28:59;21.98;;;14.55;;
56299;SDS011;42209;6.376;-10.782;2023-02-01T09:31:28;19.75;;;14.80;;
56299;SDS011;42209;6.376;-10.782;2023-02-01T09:33:57;23.85;;;14.20;;
56299;SDS011;42209;6.376;-10.782;2023-02-01T09:36:25;18.92;;;13.48;;
56299;SDS011;42209;6.376;-10.782;2023-02-01T09:38:57;18.35;;;13.68;;
56299;SDS011;42209;6.376;-10.782;2023-02-01T09:47:14;17.17;;;13.10;;
56299;SDS011;42209;6.376;-10.782;2023-02-01T09:49:48;17.52;;;12.13;;
56299;SDS011;42209;6.376;-10.782;2023-02-01T09:52:44;15.90;;;13.07;;
56299;SDS011;42209;6.376;-10.782;2023-02-01T09:55:34;15.32;;;13.43;;
56299;SDS011;42209;6.376;-10.782;2023-02-01T09:58:19;15.48;;;13.40;;
56299;SDS011;42209;6.376;-10.782;2023-02-01T10:00:58;19.20;;;12.68;;
56299;SDS011;42209;6.376;-10.782;2023-02-01T10:03:29;17.60;;;13.68;;
56299;SDS011;42209;6.376;-10.782;2023-02-01T10:06:08;14.95;;;13.27;;
56299;SDS011;42209;6.376;-10.782;2023-02-01T10:22:51;14.85;;;12.52;;
56299;SDS011;42209;6.376;-10.782;2023-02-01T10:25:55;15.20;;;13.02;;
56299;SDS011;42209;6.376;-10.782;2023-02-01T10:28:32;15.73;;;12.27;;
56299;SDS011;42209;6.376;-10.782;2023-02-01T10:31:04;14.13;;;11.68;;
56299;SDS011;42209;6.376;-10.782;2023-02-01T10:33:42;16.85;;;13.00;;
56299;SDS011;42209;6.376;-10.782;2023-02-01T10:36:21;13.50;;;11.30;;
56299;SDS011;42209;6.376;-10.782;2023-02-01T10:39:02;13.13;;;11.13;;
56299;SDS011;42209;6.376;-10.782;2023-02-01T10:41:36;12.70;;;11.40;;
56299;SDS011;42209;6.376;-10.782;2023-02-01T10:44:14;13.00;;;11.13;;
56299;SDS011;42209;6.376;-10.782;2023-02-01T18:23:02;5.72;;;1.98;;
56299;SDS011;42209;6.376;-10.782;2023-02-01T18:27:58;4.07;;;2.10;;
56299;SDS011;42209;6.376;-10.782;2023-02-01T18:30:28;4.13;;;2.28;;
56299;SDS011;42209;6.376;-10.782;2023-02-01T18:32:58;5.32;;;2.72;;
56299;SDS011;42209;6.376;-10.782;2023-02-01T18:35:28;3.45;;;2.28;;
56299;SDS011;42209;6.376;-10.782;2023-02-01T18:37:59;3.28;;;2.30;;
56299;SDS011;42209;6.376;-10.782;2023-02-01T18:40:31;4.78;;;1.95;;
56299;SDS011;42209;6.376;-10.782;2023-02-01T18:43:08;4.63;;;2.63;;
56299;SDS011;42209;6.376;-10.782;2023-02-01T18:45:38;3.75;;;2.65;;
56299;SDS011;42209;6.376;-10.782;2023-02-01T18:48:08;6.05;;;3.15;;
56299;SDS011;42209;6.376;-10.782;2023-02-01T18:50:38;5.70;;;4.15;;
56299;SDS011;42209;6.376;-10.782;2023-02-01T18:53:16;4.57;;;3.55;;
56299;SDS011;42209;6.376;-10.782;2023-02-01T18:55:46;9.50;;;4.35;;
56299;SDS011;42209;6.376;-10.782;2023-02-01T18:58:15;5.55;;;3.83;;
56299;SDS011;42209;6.376;-10.782;2023-02-01T19:00:45;6.72;;;3.45;;
56299;SDS011;42209;6.376;-10.782;2023-02-01T19:03:14;7.10;;;3.80;;
56299;SDS011;42209;6.376;-10.782;2023-02-01T19:05:43;6.57;;;3.95;;
56299;SDS011;42209;6.376;-10.782;2023-02-01T19:08:12;8.23;;;4.32;;
56299;SDS011;42209;6.376;-10.782;2023-02-01T19:10:41;4.65;;;3.83;;
56299;SDS011;42209;6.376;-10.782;2023-02-01T19:13:10;5.28;;;3.45;;
56299;SDS011;42209;6.376;-10.782;2023-02-01T19:15:41;8.38;;;3.70;;
56299;SDS011;42209;6.376;-10.782;2023-02-01T19:18:09;6.13;;;3.97;;
56299;SDS011;42209;6.376;-10.782;2023-02-01T19:20:38;6.38;;;4.15;;
56299;SDS011;42209;6.376;-10.782;2023-02-01T19:23:07;5.50;;;3.33;;
56299;SDS011;42209;6.376;-10.782;2023-02-01T19:25:36;4.85;;;3.30;;
56299;SDS011;42209;6.376;-10.782;2023-02-01T19:28:04;8.23;;;4.50;;
56299;SDS011;42209;6.376;-10.782;2023-02-01T19:30:33;8.32;;;4.45;;
56299;SDS011;42209;6.376;-10.782;2023-02-01T19:33:01;7.70;;;3.75;;
56299;SDS011;42209;6.376;-10.782;2023-02-01T19:35:30;6.95;;;4.18;;
56299;SDS011;42209;6.376;-10.782;2023-02-01T19:37:58;7.30;;;4.78;;
56299;SDS011;42209;6.376;-10.782;2023-02-01T19:40:26;9.02;;;5.90;;
56299;SDS011;42209;6.376;-10.782;2023-02-01T19:42:55;9.50;;;5.97;;
56299;SDS011;42209;6.376;-10.782;2023-02-01T19:45:23;12.57;;;6.57;;
56299;SDS011;42209;6.376;-10.782;2023-02-01T19:47:52;9.52;;;6.32;;
56299;SDS011;42209;6.376;-10.782;2023-02-01T19:50:20;8.77;;;5.50;;
56299;SDS011;42209;6.376;-10.782;2023-02-01T19:52:49;10.10;;;6.85;;
56299;SDS011;42209;6.376;-10.782;2023-02-01T19:55:17;8.82;;;6.57;;
56299;SDS011;42209;6.376;-10.782;2023-02-01T19:57:45;10.52;;;6.97;;
56299;SDS011;42209;6.376;-10.782;2023-02-01T20:00:13;13.43;;;6.82;;
56299;SDS011;42209;6.376;-10.782;2023-02-01T20:02:42;12.77;;;7.40;;
56299;SDS011;42209;6.376;-10.782;2023-02-01T20:05:10;12.32;;;6.97;;
56299;SDS011;42209;6.376;-10.782;2023-02-01T20:07:39;10.93;;;7.07;;
56299;SDS011;42209;6.376;-10.782;2023-02-01T20:10:07;13.27;;;7.13;;
56299;SDS011;42209;6.376;-10.782;2023-02-01T20:12:36;9.95;;;6.90;;
56299;SDS011;42209;6.376;-10.782;2023-02-01T20:15:06;9.93;;;6.90;;
56299;SDS011;42209;6.376;-10.782;2023-02-01T20:17:35;8.68;;;6.32;;
56299;SDS011;42209;6.376;-10.782;2023-02-01T20:20:04;9.65;;;6.57;;
56299;SDS011;42209;6.376;-10.782;2023-02-01T20:22:32;10.85;;;5.97;;
56299;SDS011;42209;6.376;-10.782;2023-02-01T20:25:01;10.18;;;6.93;;
56299;SDS011;42209;6.376;-10.782;2023-02-01T20:27:29;10.60;;;6.35;;
56299;SDS011;42209;6.376;-10.782;2023-02-01T20:29:57;9.02;;;5.95;;
56299;SDS011;42209;6.376;-10.782;2023-02-01T20:32:26;7.38;;;5.70;;
56299;SDS011;42209;6.376;-10.782;2023-02-01T20:34:54;12.88;;;6.20;;
56299;SDS011;42209;6.376;-10.782;2023-02-01T20:37:23;11.77;;;5.95;;
56299;SDS011;42209;6.376;-10.782;2023-02-01T20:39:51;12.38;;;6.40;;
56299;SDS011;42209;6.376;-10.782;2023-02-01T20:42:19;11.50;;;6.78;;
56299;SDS011;42209;6.376;-10.782;2023-02-01T20:44:48;10.82;;;6.40;;
56299;SDS011;42209;6.376;-10.782;2023-02-01T20:47:16;12.13;;;6.28;;
56299;SDS011;42209;6.376;-10.782;2023-02-01T20:49:44;11.43;;;6.53;;
56299;SDS011;42209;6.376;-10.782;2023-02-01T20:52:13;12.52;;;7.20;;
56299;SDS011;42209;6.376;-10.782;2023-02-01T20:54:41;12.15;;;7.95;;
56299;SDS011;42209;6.376;-10.782;2023-02-01T20:57:09;14.10;;;7.60;;
56299;SDS011;42209;6.376;-10.782;2023-02-01T20:59:38;14.80;;;7.50;;
56299;SDS011;42209;6.376;-10.782;2023-02-01T21:02:07;11.45;;;7.43;;
56299;SDS011;42209;6.376;-10.782;2023-02-01T21:04:37;14.15;;;7.85;;
56299;SDS011;42209;6.376;-10.782;2023-02-01T21:07:05;13.20;;;7.40;;
56299;SDS011;42209;6.376;-10.782;2023-02-01T21:09:33;14.43;;;7.88;;
56299;SDS011;42209;6.376;-10.782;2023-02-01T21:12:02;16.10;;;7.88;;
56299;SDS011;42209;6.376;-10.782;2023-02-01T21:14:31;15.60;;;7.97;;
56299;SDS011;42209;6.376;-10.782;2023-02-01T21:16:59;13.15;;;7.78;;
56299;SDS011;42209;6.376;-10.782;2023-02-01T21:19:27;14.20;;;7.70;;
56299;SDS011;42209;6.376;-10.782;2023-02-01T21:21:55;13.73;;;7.57;;
56299;SDS011;42209;6.376;-10.782;2023-02-01T21:24:25;14.07;;;7.65;;
56299;SDS011;42209;6.376;-10.782;2023-02-01T21:26:53;13.07;;;8.57;;
56299;SDS011;42209;6.376;-10.782;2023-02-01T21:29:21;17.05;;;8.60;;
56299;SDS011;42209;6.376;-10.782;2023-02-01T21:31:50;14.73;;;8.43;;
56299;SDS011;42209;6.376;-10.782;2023-02-01T21:34:18;14.00;;;7.95;;
56299;SDS011;42209;6.376;-10.782;2023-02-01T21:36:46;19.25;;;9.40;;
56299;SDS011;42209;6.376;-10.782;2023-02-01T21:39:15;16.33;;;9.20;;
56299;SDS011;42209;6.376;-10.782;2023-02-01T21:41:43;20.02;;;10.23;;
56299;SDS011;42209;6.376;-10.782;2023-02-01T21:44:12;15.48;;;8.98;;
56299;SDS011;42209;6.376;-10.782;2023-02-01T21:46:41;18.77;;;9.85;;
56299;SDS011;42209;6.376;-10.782;2023-02-01T21:49:10;14.23;;;8.85;;
56299;SDS011;42209;6.376;-10.782;2023-02-01T21:51:38;16.95;;;9.13;;
56299;SDS011;42209;6.376;-10.782;2023-02-01T21:54:08;17.13;;;8.95;;
56299;SDS011;42209;6.376;-10.782;2023-02-01T21:56:37;17.55;;;9.73;;
56299;SDS011;42209;6.376;-10.782;2023-02-01T21:59:06;16.73;;;9.23;;
56299;SDS011;42209;6.376;-10.782;2023-02-01T22:04:05;15.60;;;8.95;;
56299;SDS011;42209;6.376;-10.782;2023-02-01T22:06:35;15.23;;;9.45;;
56299;SDS011;42209;6.376;-10.782;2023-02-01T22:09:11;13.02;;;8.40;;
56299;SDS011;42209;6.376;-10.782;2023-02-01T22:11:48;13.77;;;8.48;;
56299;SDS011;42209;6.376;-10.782;2023-02-01T22:14:18;13.27;;;8.80;;
56299;SDS011;42209;6.376;-10.782;2023-02-01T22:16:47;13.93;;;9.10;;
56299;SDS011;42209;6.376;-10.782;2023-02-01T22:19:16;13.32;;;8.95;;
56299;SDS011;42209;6.376;-10.782;2023-02-01T22:21:45;15.75;;;9.90;;
56299;SDS011;42209;6.376;-10.782;2023-02-01T22:24:15;16.17;;;9.15;;
56299;SDS011;42209;6.376;-10.782;2023-02-01T22:26:44;15.65;;;8.93;;
56299;SDS011;42209;6.376;-10.782;2023-02-01T22:31:41;15.43;;;10.27;;
56299;SDS011;42209;6.376;-10.782;2023-02-01T22:36:39;14.00;;;9.48;;
56299;SDS011;42209;6.376;-10.782;2023-02-01T22:39:08;16.25;;;9.45;;
56299;SDS011;42209;6.376;-10.782;2023-02-01T22:41:37;14.52;;;9.38;;
56299;SDS011;42209;6.376;-10.782;2023-02-01T22:44:05;19.30;;;10.35;;
56299;SDS011;42209;6.376;-10.782;2023-02-01T22:46:33;15.82;;;9.43;;
56299;SDS011;42209;6.376;-10.782;2023-02-01T22:49:02;18.58;;;10.50;;
56299;SDS011;42209;6.376;-10.782;2023-02-01T22:51:31;17.85;;;10.35;;
56299;SDS011;42209;6.376;-10.782;2023-02-01T22:54:00;16.75;;;10.57;;
56299;SDS011;42209;6.376;-10.782;2023-02-01T22:56:34;16.45;;;10.20;;
56299;SDS011;42209;6.376;-10.782;2023-02-01T22:59:04;14.77;;;8.80;;
56299;SDS011;42209;6.376;-10.782;2023-02-01T23:01:36;15.95;;;10.38;;
56299;SDS011;42209;6.376;-10.782;2023-02-01T23:04:04;16.27;;;9.48;;
56299;SDS011;42209;6.376;-10.782;2023-02-01T23:06:35;16.90;;;10.82;;
56299;SDS011;42209;6.376;-10.782;2023-02-01T23:09:22;17.00;;;11.13;;
56299;SDS011;42209;6.376;-10.782;2023-02-01T23:11:52;18.17;;;11.40;;
56299;SDS011;42209;6.376;-10.782;2023-02-01T23:14:21;16.75;;;10.95;;
56299;SDS011;42209;6.376;-10.782;2023-02-01T23:16:49;17.73;;;10.63;;
56299;SDS011;42209;6.376;-10.782;2023-02-01T23:19:18;16.25;;;11.35;;
56299;SDS011;42209;6.376;-10.782;2023-02-01T23:21:46;16.15;;;10.10;;
56299;SDS011;42209;6.376;-10.782;2023-02-01T23:24:15;17.75;;;10.93;;
56299;SDS011;42209;6.376;-10.782;2023-02-01T23:26:43;16.83;;;10.23;;
56299;SDS011;42209;6.376;-10.782;2023-02-01T23:29:14;18.52;;;10.32;;
56299;SDS011;42209;6.376;-10.782;2023-02-01T23:31:44;16.05;;;11.48;;
56299;SDS011;42209;6.376;-10.782;2023-02-01T23:34:12;16.95;;;10.70;;